Time;durP1;ratioP1;P1;durP2;ratioP2;P2;SDS_P1;SDS_P2;PMS_P1;PMS_P2;Temp;Humidity;BMP_temperature;BMP_pressure;BME280_temperature;BME280_humidity;BME280_pressure;Samples;Min_cycle;Max_cycle;Signal;HPM_P1;HPM_P2
2024/01/31 00:00:28;;;;;;;25.20;13.90;;;;;;;2.15;71.62;101788.16;112767;243;40103;-69
2024/01/31 00:03:21;;;;;;;23.50;13.30;;;;;;;2.14;71.57;101787.29;112776;243;38550;-68
2024/01/31 00:05:55;;;;;;;24.40;14.40;;;;;;;2.12;71.66;101785.70;112773;243;38568;-68
2024/01/31 00:08:29;;;;;;;24.30;14.10;;;;;;;2.09;71.58;101778.59;112771;243;38695;-68
2024/01/31 00:11:03;;;;;;;25.60;13.80;;;;;;;2.08;71.59;101782.70;112798;243;38378;-68
2024/01/31 00:13:37;;;;;;;27.30;14.10;;;;;;;2.07;71.64;101786.11;112529;242;155805;-68
2024/01/31 00:16:13;;;;;;;20.40;12.80;;;;;;;2.08;71.55;101784.77;112783;243;38269;-68
2024/01/31 00:18:46;;;;;;;26.30;14.30;;;;;;;2.10;71.62;101784.80;112769;243;38526;-68
2024/01/31 00:21:20;;;;;;;24.50;13.60;;;;;;;2.12;71.68;101782.09;112647;243;175034;-68
2024/01/31 00:23:55;;;;;;;24.10;13.80;;;;;;;2.15;71.57;101786.79;112752;243;38286;-68
2024/01/31 00:26:28;;;;;;;24.50;13.90;;;;;;;2.16;71.65;101781.98;112736;243;39784;-68
2024/01/31 00:29:02;;;;;;;22.60;13.30;;;;;;;2.15;71.64;101782.14;112804;243;38338;-69
2024/01/31 00:31:36;;;;;;;23.90;14.20;;;;;;;2.13;71.59;101783.31;112553;242;154283;-70
2024/01/31 00:34:09;;;;;;;23.30;13.90;;;;;;;2.11;71.61;101785.67;112752;243;38848;-69
2024/01/31 00:36:43;;;;;;;22.00;13.80;;;;;;;2.08;71.57;101785.45;112541;242;155185;-68
2024/01/31 00:39:20;;;;;;;22.80;13.60;;;;;;;2.06;71.61;101785.23;112715;243;40475;-69
2024/01/31 00:41:54;;;;;;;24.10;13.50;;;;;;;2.06;71.72;101778.88;112620;242;154995;-70
2024/01/31 00:44:28;;;;;;;22.10;13.10;;;;;;;2.07;71.75;101780.10;112670;243;39018;-70
2024/01/31 00:47:02;;;;;;;21.40;13.20;;;;;;;2.08;71.71;101776.86;112764;243;38395;-70
2024/01/31 00:49:35;;;;;;;25.40;14.60;;;;;;;2.10;71.89;101769.83;112549;242;154153;-68
2024/01/31 00:52:10;;;;;;;23.20;13.70;;;;;;;2.09;71.99;101764.48;112729;243;40064;-68
2024/01/31 00:54:44;;;;;;;24.30;13.80;;;;;;;2.04;72.05;101760.25;112573;242;154175;-69
2024/01/31 00:57:18;;;;;;;25.30;13.80;;;;;;;2.01;71.91;101762.77;112714;243;38387;-69
2024/01/31 00:59:52;;;;;;;22.60;13.70;;;;;;;1.98;71.99;101761.33;112631;242;154385;-68
2024/01/31 01:02:26;;;;;;;22.70;13.40;;;;;;;1.92;72.05;101754.17;112678;243;39120;-68
2024/01/31 01:05:00;;;;;;;24.60;12.80;;;;;;;1.90;72.19;101753.77;112752;243;39777;-68
2024/01/31 01:07:34;;;;;;;20.50;12.50;;;;;;;1.90;72.33;101754.30;112533;242;155166;-68
2024/01/31 01:10:12;;;;;;;22.80;14.10;;;;;;;1.93;72.32;101754.18;112660;243;38431;-68
2024/01/31 01:12:46;;;;;;;22.60;12.50;;;;;;;1.95;72.59;101748.02;112567;242;154115;-68
2024/01/31 01:15:20;;;;;;;21.40;13.50;;;;;;;1.94;72.55;101747.66;112734;243;38536;-69
2024/01/31 01:17:54;;;;;;;22.40;13.60;;;;;;;1.95;72.55;101745.27;112570;242;154453;-69
2024/01/31 01:20:28;;;;;;;22.40;13.10;;;;;;;1.94;72.67;101744.05;112654;243;38460;-69
2024/01/31 01:23:02;;;;;;;23.50;13.30;;;;;;;1.93;72.60;101746.10;112764;243;38590;-70
2024/01/31 01:25:36;;;;;;;24.40;13.80;;;;;;;1.90;72.64;101745.35;112503;242;154483;-68
2024/01/31 01:28:10;;;;;;;21.80;12.60;;;;;;;1.89;72.78;101745.69;112740;243;40787;-68
2024/01/31 01:30:44;;;;;;;22.50;12.80;;;;;;;1.90;72.92;101744.48;112559;242;154875;-68
2024/01/31 01:33:18;;;;;;;21.40;12.70;;;;;;;1.91;72.86;101744.34;112724;243;38312;-68
2024/01/31 01:35:51;;;;;;;20.90;12.70;;;;;;;1.93;73.10;101739.05;112724;241;154281;-70
2024/01/31 01:38:25;;;;;;;22.20;13.90;;;;;;;1.95;73.11;101739.60;112680;243;38377;-70
2024/01/31 01:40:59;;;;;;;23.50;13.50;;;;;;;1.96;73.15;101738.58;112878;243;37884;-69
2024/01/31 01:43:33;;;;;;;20.00;13.00;;;;;;;1.94;73.13;101739.07;112738;240;155373;-69
2024/01/31 01:46:17;;;;;;;20.20;13.20;;;;;;;1.91;73.12;101735.38;112866;243;38567;-69
2024/01/31 01:48:51;;;;;;;21.20;12.60;;;;;;;1.89;73.31;101734.49;112622;241;153996;-69
2024/01/31 01:51:25;;;;;;;21.20;12.20;;;;;;;1.86;73.27;101727.89;112684;243;175061;-68
2024/01/31 01:53:59;;;;;;;23.10;13.00;;;;;;;1.83;73.23;101728.52;112754;240;155827;-68
2024/01/31 01:56:33;;;;;;;20.80;12.60;;;;;;;1.82;73.27;101727.80;112884;242;38502;-68
2024/01/31 01:59:07;;;;;;;19.90;11.90;;;;;;;1.83;73.38;101726.12;112843;243;38495;-69
2024/01/31 02:01:41;;;;;;;22.90;13.30;;;;;;;1.85;73.40;101724.25;112567;241;154341;-69
2024/01/31 02:04:15;;;;;;;20.60;13.00;;;;;;;1.87;73.69;101727.73;112886;243;38534;-69
2024/01/31 02:06:49;;;;;;;23.40;13.00;;;;;;;1.87;73.71;101729.45;112766;240;154189;-69
2024/01/31 02:09:23;;;;;;;22.80;12.50;;;;;;;1.87;73.65;101727.04;112882;242;38334;-68
2024/01/31 02:11:57;;;;;;;24.70;13.00;;;;;;;1.85;73.68;101724.08;112682;241;154589;-68
2024/01/31 02:14:30;;;;;;;21.80;12.00;;;;;;;1.84;73.85;101726.30;112712;243;38900;-69
2024/01/31 02:17:04;;;;;;;20.50;12.20;;;;;;;1.83;73.73;101725.09;112864;243;38472;-69
2024/01/31 02:19:38;;;;;;;18.80;12.60;;;;;;;1.85;73.92;101727.35;112797;240;154730;-69
2024/01/31 02:22:16;;;;;;;22.90;12.90;;;;;;;1.88;73.95;101733.27;112755;243;175083;-69
2024/01/31 02:24:50;;;;;;;19.60;12.20;;;;;;;1.90;74.06;101730.89;112578;241;155816;-68
2024/01/31 02:27:24;;;;;;;20.80;13.30;;;;;;;1.90;74.00;101731.73;112777;243;38825;-68
2024/01/31 02:29:58;;;;;;;20.40;12.60;;;;;;;1.87;74.03;101731.17;112749;240;154409;-68
2024/01/31 02:32:32;;;;;;;20.20;13.10;;;;;;;1.86;74.03;101728.23;112876;242;39725;-68
2024/01/31 02:35:07;;;;;;;24.40;13.80;;;;;;;1.84;74.13;101732.50;112627;243;41321;-68
2024/01/31 02:37:45;;;;;;;22.60;13.10;;;;;;;1.82;74.22;101729.02;112561;241;154961;-68
2024/01/31 02:40:19;;;;;;;19.10;11.90;;;;;;;1.83;74.36;101729.04;112866;243;38078;-69
2024/01/31 02:42:53;;;;;;;22.00;13.00;;;;;;;1.85;74.34;101729.60;112771;242;154560;-70
2024/01/31 02:45:27;;;;;;;19.40;12.90;;;;;;;1.89;74.40;101728.47;112890;242;39027;-68
2024/01/31 02:48:01;;;;;;;20.70;12.50;;;;;;;1.91;74.44;101727.11;112660;241;155453;-68
2024/01/31 02:50:35;;;;;;;22.90;13.20;;;;;;;1.92;74.49;101728.16;112752;243;38662;-69
2024/01/31 02:53:09;;;;;;;22.70;13.00;;;;;;;1.89;74.53;101726.41;112846;243;38507;-69
2024/01/31 02:55:43;;;;;;;24.10;13.70;;;;;;;1.87;74.52;101719.98;112797;240;154508;-69
2024/01/31 02:58:16;;;;;;;24.60;13.60;;;;;;;1.85;74.62;101716.70;112854;243;38575;-70
2024/01/31 03:00:50;;;;;;;19.60;12.00;;;;;;;1.83;74.78;101713.56;112829;243;38538;-68
2024/01/31 03:03:24;;;;;;;19.50;12.20;;;;;;;1.82;74.75;101717.48;112859;243;38304;-68
2024/01/31 03:05:58;;;;;;;20.70;12.00;;;;;;;1.82;74.94;101716.28;112824;243;40535;-69
2024/01/31 03:08:31;;;;;;;20.90;13.40;;;;;;;1.84;74.99;101715.28;112863;243;39342;-69
2024/01/31 03:11:06;;;;;;;23.30;13.20;;;;;;;1.85;75.08;101714.96;112854;243;38512;-68
2024/01/31 03:13:39;;;;;;;19.70;13.30;;;;;;;1.86;75.22;101714.98;112837;243;39179;-68
2024/01/31 03:16:13;;;;;;;23.00;13.90;;;;;;;1.86;75.17;101714.47;112826;243;38583;-68
2024/01/31 03:18:47;;;;;;;22.90;14.00;;;;;;;1.84;75.21;101710.64;112669;241;155485;-68
2024/01/31 03:21:21;;;;;;;23.60;13.30;;;;;;;1.82;75.29;101706.64;112759;243;39974;-69
2024/01/31 03:23:57;;;;;;;22.40;12.90;;;;;;;1.83;75.32;101706.67;112727;242;154914;-70
2024/01/31 03:26:30;;;;;;;21.80;12.50;;;;;;;1.85;75.43;101707.73;112877;242;38261;-68
2024/01/31 03:29:04;;;;;;;19.30;12.50;;;;;;;1.89;75.45;101707.47;112830;243;38281;-69
2024/01/31 03:31:38;;;;;;;22.40;12.80;;;;;;;1.91;75.57;101711.47;112541;241;154401;-69
2024/01/31 03:34:12;;;;;;;20.90;13.00;;;;;;;1.95;75.64;101710.69;112829;243;39482;-69
2024/01/31 03:36:46;;;;;;;21.80;13.60;;;;;;;1.96;75.76;101709.67;112732;240;154965;-69
2024/01/31 03:39:19;;;;;;;23.60;15.00;;;;;;;1.95;75.78;101709.83;112877;242;39975;-69
2024/01/31 03:41:53;;;;;;;20.50;12.90;;;;;;;1.95;75.78;101709.64;112708;241;154335;-69
2024/01/31 03:44:27;;;;;;;22.20;13.10;;;;;;;1.96;75.77;101711.38;112662;243;38859;-68
2024/01/31 03:47:01;;;;;;;21.60;12.60;;;;;;;1.99;75.88;101711.80;112851;243;40203;-68
2024/01/31 03:49:34;;;;;;;22.80;13.90;;;;;;;2.03;75.88;101712.22;112724;240;154559;-68
2024/01/31 03:52:09;;;;;;;23.30;14.30;;;;;;;2.09;75.99;101706.30;112824;242;38382;-68
2024/01/31 03:54:43;;;;;;;25.40;14.00;;;;;;;2.13;75.94;101704.48;112660;241;154328;-69
2024/01/31 03:57:17;;;;;;;21.00;13.70;;;;;;;2.17;75.97;101705.07;112733;243;39905;-70
2024/01/31 03:59:51;;;;;;;23.60;13.80;;;;;;;2.19;75.90;101705.79;112750;243;154494;-69
2024/01/31 04:02:25;;;;;;;22.90;14.20;;;;;;;2.19;75.90;101702.34;112840;242;39294;-70
2024/01/31 04:04:59;;;;;;;21.00;12.60;;;;;;;2.20;75.92;101705.63;112840;243;38248;-70
2024/01/31 04:07:33;;;;;;;23.20;14.80;;;;;;;2.22;75.87;101704.47;112553;241;154966;-70
2024/01/31 04:10:08;;;;;;;20.00;13.20;;;;;;;2.25;75.91;101701.92;112843;243;39545;-68
2024/01/31 04:12:42;;;;;;;21.50;13.20;;;;;;;2.30;75.94;101703.39;112751;240;154115;-68
2024/01/31 04:15:16;;;;;;;21.50;13.50;;;;;;;2.33;76.01;101704.84;112891;242;38301;-70
2024/01/31 04:17:50;;;;;;;24.90;15.40;;;;;;;2.35;75.94;101707.26;112811;243;39972;-70
2024/01/31 04:20:24;;;;;;;22.10;14.60;;;;;;;2.36;75.86;101711.25;112790;243;39128;-68
2024/01/31 04:22:58;;;;;;;25.00;15.60;;;;;;;2.36;75.91;101710.88;112829;243;39121;-68
2024/01/31 04:25:32;;;;;;;20.20;13.00;;;;;;;2.36;75.89;101713.11;112566;241;156192;-68
2024/01/31 04:28:06;;;;;;;20.40;13.60;;;;;;;2.37;75.92;101714.55;112799;243;40173;-68
2024/01/31 04:30:40;;;;;;;22.20;13.60;;;;;;;2.40;75.99;101711.13;112651;243;154462;-69
2024/01/31 04:33:14;;;;;;;25.40;14.30;;;;;;;2.44;76.05;101710.34;112082;243;910448;-70
2024/01/31 04:35:48;;;;;;;22.50;14.40;;;;;;;2.46;76.13;101708.48;112849;243;38822;-69
2024/01/31 04:38:22;;;;;;;25.90;15.40;;;;;;;2.47;76.26;101714.36;112658;243;38966;-70
2024/01/31 04:40:56;;;;;;;22.50;14.90;;;;;;;2.51;76.25;101711.84;112837;243;39008;-68
2024/01/31 04:43:30;;;;;;;25.80;14.40;;;;;;;2.53;76.39;101719.10;112697;241;154088;-68
2024/01/31 04:46:03;;;;;;;23.90;14.90;;;;;;;2.57;76.36;101725.56;112794;243;38492;-68
2024/01/31 04:48:37;;;;;;;22.10;13.40;;;;;;;2.65;76.39;101725.16;112738;240;155012;-68
2024/01/31 04:51:11;;;;;;;22.60;14.90;;;;;;;2.73;76.43;101723.05;112903;242;38258;-68
2024/01/31 04:53:45;;;;;;;23.10;15.00;;;;;;;2.80;76.38;101722.31;112825;243;39786;-68
2024/01/31 04:56:19;;;;;;;24.90;15.00;;;;;;;2.88;76.28;101726.04;112725;242;38510;-68
2024/01/31 04:58:54;;;;;;;24.00;15.60;;;;;;;2.93;76.13;101726.12;112873;243;38232;-68
2024/01/31 05:01:28;;;;;;;25.30;16.50;;;;;;;2.97;76.02;101728.23;112608;243;154436;-68
2024/01/31 05:04:03;;;;;;;26.00;16.20;;;;;;;2.99;75.95;101726.37;112800;243;40461;-69
2024/01/31 05:06:37;;;;;;;25.50;15.40;;;;;;;3.00;75.86;101727.42;112456;242;186119;-69
2024/01/31 05:09:11;;;;;;;24.70;15.90;;;;;;;3.02;75.70;101732.11;112792;243;38837;-68
2024/01/31 05:11:44;;;;;;;21.90;14.70;;;;;;;3.06;75.70;101729.77;112854;243;38448;-68
2024/01/31 05:14:18;;;;;;;26.30;16.10;;;;;;;3.11;75.60;101733.63;112580;243;154787;-68
2024/01/31 05:16:52;;;;;;;27.10;16.10;;;;;;;3.16;75.68;101734.54;112839;243;38517;-68
2024/01/31 05:19:26;;;;;;;23.30;14.70;;;;;;;3.21;75.62;101735.31;112783;240;154447;-68
2024/01/31 05:21:59;;;;;;;26.70;16.20;;;;;;;3.24;75.67;101734.50;112828;242;38888;-68
2024/01/31 05:24:33;;;;;;;25.20;15.80;;;;;;;3.26;75.53;101731.42;112638;243;154295;-69
2024/01/31 05:27:08;;;;;;;25.50;15.40;;;;;;;3.27;75.51;101726.27;112742;243;38802;-70
2024/01/31 05:29:42;;;;;;;24.50;15.50;;;;;;;3.27;75.44;101725.92;112876;243;39569;-70
2024/01/31 05:32:16;;;;;;;28.20;15.50;;;;;;;3.29;75.47;101724.73;112481;241;175029;-70
2024/01/31 05:34:50;;;;;;;20.90;13.70;;;;;;;3.31;75.46;101727.87;112852;242;38330;-68
2024/01/31 05:37:24;;;;;;;26.80;14.80;;;;;;;3.35;75.47;101727.06;112703;241;154620;-67
2024/01/31 05:39:58;;;;;;;20.80;14.40;;;;;;;3.40;75.42;101727.47;112828;243;39485;-70
2024/01/31 05:42:34;;;;;;;23.60;15.10;;;;;;;3.44;75.40;101728.02;112754;241;154841;-70
2024/01/31 05:45:10;;;;;;;26.50;15.90;;;;;;;3.46;75.40;101731.69;112811;243;39957;-69
2024/01/31 05:47:44;;;;;;;27.60;16.70;;;;;;;3.47;75.36;101730.14;112832;243;38347;-69
2024/01/31 05:50:21;;;;;;;25.20;16.00;;;;;;;3.47;75.33;101729.11;112806;240;154245;-69
2024/01/31 05:52:55;;;;;;;22.80;14.50;;;;;;;3.47;75.35;101725.84;112816;243;39492;-70
2024/01/31 05:55:29;;;;;;;24.50;15.40;;;;;;;3.49;75.34;101725.86;112460;241;175139;-68
2024/01/31 05:58:03;;;;;;;24.80;15.30;;;;;;;3.53;75.41;101728.31;112815;243;38503;-68
2024/01/31 06:00:37;;;;;;;28.60;16.00;;;;;;;3.57;75.48;101727.16;112725;240;154498;-68
2024/01/31 06:03:11;;;;;;;24.80;15.50;;;;;;;3.59;75.39;101723.91;112839;242;38752;-68
2024/01/31 06:05:45;;;;;;;37.00;17.10;;;;;;;3.58;75.25;101723.03;112861;243;39460;-69
2024/01/31 06:08:22;;;;;;;23.50;16.10;;;;;;;3.54;75.18;101722.14;112536;241;155058;-69
2024/01/31 06:11:02;;;;;;;25.70;16.90;;;;;;;3.47;75.08;101727.20;112861;243;38330;-68
2024/01/31 06:13:37;;;;;;;25.90;16.10;;;;;;;3.39;75.13;101730.55;112701;241;154385;-68
2024/01/31 06:16:11;;;;;;;27.30;16.10;;;;;;;3.34;75.20;101737.22;112837;243;38347;-68
2024/01/31 06:18:45;;;;;;;25.20;15.10;;;;;;;3.30;75.34;101737.69;112645;241;155163;-68
2024/01/31 06:21:19;;;;;;;24.20;15.30;;;;;;;3.28;75.56;101737.30;112800;243;38425;-70
2024/01/31 06:23:54;;;;;;;24.40;16.20;;;;;;;3.27;75.75;101742.64;112826;243;38573;-70
2024/01/31 06:26:30;;;;;;;27.40;17.30;;;;;;;3.28;76.07;101749.72;112710;243;38374;-69
2024/01/31 06:29:04;;;;;;;25.60;16.00;;;;;;;3.28;76.09;101749.55;112832;243;38255;-69
2024/01/31 06:31:46;;;;;;;27.30;16.30;;;;;;;3.28;76.06;101744.38;112670;241;154525;-68
2024/01/31 06:34:20;;;;;;;28.00;16.60;;;;;;;3.26;76.11;101744.36;112846;243;38262;-69
2024/01/31 06:36:54;;;;;;;23.60;15.00;;;;;;;3.24;76.17;101743.45;112729;240;154846;-69
2024/01/31 06:39:28;;;;;;;26.20;15.90;;;;;;;3.24;76.30;101742.92;112864;242;38224;-68
2024/01/31 06:42:01;;;;;;;26.20;16.40;;;;;;;3.25;76.31;101743.31;112733;243;155690;-68
2024/01/31 06:48:44;;;;;;;24.60;15.60;;;;;;;3.24;76.88;101746.91;108012;271;602803;-70
2024/01/31 06:51:17;;;;;;;29.70;17.70;;;;;;;3.23;77.14;101750.00;109881;257;38608;-69
2024/01/31 06:53:53;;;;;;;29.50;17.70;;;;;;;3.23;77.30;101750.68;109887;257;39015;-70
2024/01/31 06:56:27;;;;;;;29.70;17.80;;;;;;;3.23;77.41;101754.13;109620;259;38572;-68
2024/01/31 06:59:02;;;;;;;26.60;17.00;;;;;;;3.24;77.55;101750.70;110075;256;175700;-69
2024/01/31 07:01:39;;;;;;;27.30;16.30;;;;;;;3.27;77.62;101749.36;109914;253;171078;-68
2024/01/31 07:04:19;;;;;;;29.20;16.70;;;;;;;3.33;77.68;101747.38;110255;254;38517;-67
2024/01/31 07:06:57;;;;;;;29.90;17.80;;;;;;;3.39;77.87;101749.36;110115;252;153472;-66
2024/01/31 07:09:32;;;;;;;32.90;18.40;;;;;;;3.44;77.98;101748.55;110226;254;38358;-70
2024/01/31 07:12:09;;;;;;;33.70;18.50;;;;;;;3.48;78.11;101749.65;110128;252;153105;-69
2024/01/31 07:14:50;;;;;;;29.00;18.20;;;;;;;3.52;78.09;101751.94;110248;254;39087;-67
2024/01/31 07:17:33;;;;;;;31.40;18.40;;;;;;;3.55;78.23;101745.45;110224;254;39497;-66
2024/01/31 07:20:13;;;;;;;34.60;18.20;;;;;;;3.58;78.21;101745.30;110415;249;154128;-68
2024/01/31 07:22:52;;;;;;;29.40;16.50;;;;;;;3.63;78.25;101741.73;110716;249;39448;-67
2024/01/31 07:25:30;;;;;;;28.10;17.30;;;;;;;3.69;78.32;101745.09;110612;249;40086;-69
2024/01/31 07:28:09;;;;;;;29.80;18.50;;;;;;;3.75;78.35;101741.72;110680;249;38378;-69
2024/01/31 07:30:50;;;;;;;33.90;19.70;;;;;;;3.81;78.39;101742.30;110611;248;153394;-68
2024/01/31 07:33:27;;;;;;;31.80;18.90;;;;;;;3.86;78.41;101748.74;110695;249;38252;-69
2024/01/31 07:36:08;;;;;;;33.00;19.40;;;;;;;3.90;78.46;101750.86;110684;249;38240;-68
2024/01/31 07:38:46;;;;;;;35.40;19.80;;;;;;;3.93;78.40;101746.07;110686;249;39484;-70
2024/01/31 07:41:22;;;;;;;33.60;17.70;;;;;;;3.98;78.44;101747.49;110700;249;38096;-67
2024/01/31 07:43:59;;;;;;;30.00;16.80;;;;;;;4.04;78.53;101748.77;110539;249;154620;-67
2024/01/31 07:46:37;;;;;;;31.80;18.70;;;;;;;4.13;78.51;101747.31;110725;249;38424;-69
2024/01/31 07:49:19;;;;;;;34.00;18.60;;;;;;;4.22;78.54;101751.55;110630;248;153319;-68
2024/01/31 07:51:59;;;;;;;35.80;19.30;;;;;;;4.31;78.53;101749.21;110681;249;38936;-67
2024/01/31 07:54:40;;;;;;;36.50;19.40;;;;;;;4.37;78.36;101755.34;110573;248;153719;-67
2024/01/31 07:57:25;;;;;;;31.30;19.70;;;;;;;4.42;78.14;101754.50;110649;249;38448;-67
2024/01/31 08:00:03;;;;;;;32.10;18.90;;;;;;;4.44;78.07;101755.23;110680;249;38287;-67
2024/01/31 08:02:39;;;;;;;28.30;18.00;;;;;;;4.47;77.99;101757.84;110773;248;39364;-67
2024/01/31 08:05:18;;;;;;;30.40;18.20;;;;;;;4.51;77.80;101760.98;110735;248;38815;-69
2024/01/31 08:07:55;;;;;;;28.50;17.40;;;;;;;4.55;77.77;101759.48;110437;248;153959;-69
2024/01/31 08:10:38;;;;;;;29.20;18.60;;;;;;;4.59;77.72;101763.65;110697;249;38337;-69
2024/01/31 08:13:13;;;;;;;34.70;19.40;;;;;;;4.64;77.80;101765.77;110585;247;153292;-70
2024/01/31 08:15:47;;;;;;;27.10;18.30;;;;;;;4.67;77.55;101768.74;110633;249;175253;-69
2024/01/31 08:18:21;;;;;;;33.30;20.20;;;;;;;4.70;77.73;101769.63;110589;247;153326;-70
2024/01/31 08:21:00;;;;;;;31.40;19.10;;;;;;;4.73;77.59;101768.78;110764;248;38356;-67
2024/01/31 08:23:48;;;;;;;30.60;18.50;;;;;;;4.75;77.49;101773.48;110595;248;175372;-66
2024/01/31 08:26:28;;;;;;;30.00;18.70;;;;;;;4.79;77.38;101772.30;110452;247;154096;-68
2024/01/31 08:29:09;;;;;;;30.10;18.60;;;;;;;4.83;77.34;101770.78;110715;249;39738;-69
2024/01/31 08:31:51;;;;;;;31.70;19.60;;;;;;;4.87;77.29;101770.80;110690;248;38568;-67
2024/01/31 08:34:31;;;;;;;33.70;20.50;;;;;;;4.90;77.31;101771.17;110698;248;39499;-69
2024/01/31 08:37:09;;;;;;;34.70;19.70;;;;;;;4.93;77.24;101771.54;110589;249;153386;-69
2024/01/31 08:39:47;;;;;;;32.30;20.20;;;;;;;4.96;77.20;101771.73;110724;248;38560;-67
2024/01/31 08:46:08;;;;;;;33.00;20.30;;;;;;;4.98;77.11;101774.87;110858;247;38677;-67
2024/01/31 08:48:47;;;;;;;34.80;20.00;;;;;;;4.98;77.10;101778.48;110618;248;154235;-67
2024/01/31 08:51:22;;;;;;;30.80;19.90;;;;;;;5.02;77.12;101784.40;110703;248;38858;-67
2024/01/31 08:54:05;;;;;;;34.50;21.00;;;;;;;5.06;77.22;101782.52;110709;248;38876;-67
2024/01/31 08:56:47;;;;;;;36.70;20.00;;;;;;;5.11;77.34;101782.58;110705;247;154068;-68
2024/01/31 08:59:25;;;;;;;32.80;20.40;;;;;;;5.16;77.28;101783.98;110670;248;38271;-66
2024/01/31 09:02:04;;;;;;;36.00;21.90;;;;;;;5.21;77.29;101785.05;110388;248;175549;-68
2024/01/31 09:04:43;;;;;;;33.10;20.00;;;;;;;5.23;77.21;101784.39;110595;248;175567;-66
2024/01/31 09:07:22;;;;;;;30.00;20.20;;;;;;;5.24;77.09;101785.42;110579;245;155088;-70
2024/01/31 09:10:05;;;;;;;29.70;19.00;;;;;;;5.26;77.08;101780.24;110725;247;39879;-67
2024/01/31 09:12:46;;;;;;;31.50;19.60;;;;;;;5.30;77.03;101779.23;110470;247;154763;-69
2024/01/31 09:15:25;;;;;;;29.80;18.70;;;;;;;5.35;76.98;101775.28;110792;248;39004;-67
2024/01/31 09:18:00;;;;;;;32.40;19.90;;;;;;;5.41;77.09;101775.50;110642;248;39434;-68
2024/01/31 09:20:44;;;;;;;30.90;20.00;;;;;;;5.49;77.25;101774.15;110576;247;153882;-68
2024/01/31 09:23:22;;;;;;;33.50;19.90;;;;;;;5.61;77.39;101773.34;110751;247;40035;-67
2024/01/31 09:26:01;;;;;;;42.10;21.00;;;;;;;5.73;77.38;101773.75;110701;247;154065;-66
2024/01/31 09:28:41;;;;;;;31.00;20.80;;;;;;;5.82;77.34;101775.17;110748;248;38268;-68
2024/01/31 09:31:22;;;;;;;29.10;19.80;;;;;;;5.90;77.19;101769.68;110601;247;153297;-68
2024/01/31 09:34:09;;;;;;;31.10;19.40;;;;;;;5.97;76.92;101769.55;110108;247;909631;-69
2024/01/31 09:36:44;;;;;;;30.50;19.10;;;;;;;6.04;76.71;101769.05;110818;244;155425;-69
2024/01/31 09:39:21;;;;;;;30.80;19.80;;;;;;;6.10;76.45;101770.63;110738;246;38507;-68
2024/01/31 09:42:06;;;;;;;28.90;18.80;;;;;;;6.12;76.17;101770.29;110919;246;39983;-69
2024/01/31 09:44:49;;;;;;;32.60;20.10;;;;;;;6.13;76.22;101768.73;110644;244;177884;-69
2024/01/31 09:47:29;;;;;;;32.00;20.40;;;;;;;6.13;76.25;101768.04;110929;245;39225;-69
2024/01/31 09:50:07;;;;;;;31.40;19.50;;;;;;;6.15;76.27;101763.89;110388;245;175554;-68
2024/01/31 09:52:46;;;;;;;30.10;18.90;;;;;;;6.17;76.33;101761.30;110934;246;39011;-67
2024/01/31 09:55:35;;;;;;;29.70;19.00;;;;;;;6.19;76.26;101761.11;110956;246;38822;-68
2024/01/31 09:58:22;;;;;;;29.60;19.00;;;;;;;6.25;76.39;101754.55;110874;246;39319;-68
2024/01/31 10:01:00;;;;;;;29.10;18.90;;;;;;;6.35;76.43;101754.56;110800;244;154137;-69
2024/01/31 10:03:34;;;;;;;28.50;19.10;;;;;;;6.46;76.49;101757.53;110894;246;40337;-70
2024/01/31 10:06:09;;;;;;;30.10;20.00;;;;;;;6.61;76.90;101752.34;110936;246;38364;-69
2024/01/31 10:08:43;;;;;;;31.50;20.20;;;;;;;6.82;77.28;101750.77;110620;244;154440;-69
2024/01/31 10:11:17;;;;;;;32.60;20.40;;;;;;;7.09;77.46;101746.05;110945;246;38678;-69
2024/01/31 10:13:51;;;;;;;31.20;18.80;;;;;;;7.34;77.27;101740.80;110818;244;153482;-71
2024/01/31 10:16:25;;;;;;;26.60;18.50;;;;;;;7.56;76.53;101740.39;110971;245;38411;-70
2024/01/31 10:18:59;;;;;;;27.40;18.10;;;;;;;7.74;76.20;101741.70;110799;244;153959;-69
2024/01/31 10:21:35;;;;;;;29.80;19.20;;;;;;;7.87;75.27;101735.58;110949;245;38948;-70
2024/01/31 10:24:09;;;;;;;26.30;18.50;;;;;;;7.91;74.50;101737.46;110921;245;38436;-69
2024/01/31 10:26:45;;;;;;;27.20;18.60;;;;;;;7.90;73.63;101732.26;110682;244;153477;-68
2024/01/31 10:29:28;;;;;;;30.20;19.60;;;;;;;7.89;73.74;101729.66;110933;246;38331;-68
2024/01/31 10:32:09;;;;;;;31.10;20.10;;;;;;;7.87;73.48;101724.25;110761;244;153559;-68
2024/01/31 10:34:46;;;;;;;29.60;20.00;;;;;;;7.86;73.48;101718.54;110940;245;38952;-69
2024/01/31 10:37:26;;;;;;;28.00;18.60;;;;;;;7.86;73.36;101714.88;110731;244;154029;-70
2024/01/31 10:40:04;;;;;;;26.30;18.50;;;;;;;7.89;73.39;101714.88;110795;246;38304;-70
2024/01/31 10:42:38;;;;;;;30.60;18.30;;;;;;;7.93;73.43;101716.08;110810;245;154381;-68
2024/01/31 10:45:13;;;;;;;26.90;18.40;;;;;;;7.96;73.34;101712.74;110758;245;172368;-68
2024/01/31 10:47:59;;;;;;;30.20;19.30;;;;;;;7.99;73.25;101711.17;110876;245;38416;-68
2024/01/31 10:50:44;;;;;;;27.70;18.60;;;;;;;8.03;73.30;101708.36;110607;246;153123;-68
2024/01/31 10:53:23;;;;;;;32.40;19.80;;;;;;;8.05;73.00;101709.92;110872;246;38633;-68
2024/01/31 10:56:02;;;;;;;31.30;20.60;;;;;;;8.05;73.02;101703.67;110748;244;154574;-70
2024/01/31 10:58:37;;;;;;;28.30;19.10;;;;;;;7.97;72.79;101704.77;110936;246;37931;-70
2024/01/31 11:01:15;;;;;;;27.30;19.20;;;;;;;7.93;73.07;101700.25;110661;245;175415;-70
2024/01/31 11:03:55;;;;;;;28.00;18.80;;;;;;;7.89;73.01;101700.46;110806;246;39754;-67
2024/01/31 11:06:39;;;;;;;30.80;18.80;;;;;;;7.84;73.08;101697.17;110957;246;38281;-71
2024/01/31 11:09:23;;;;;;;29.90;18.90;;;;;;;7.82;73.35;101701.88;110699;246;38527;-71
2024/01/31 11:12:11;;;;;;;27.40;18.60;;;;;;;7.82;73.48;101701.19;110803;246;39204;-67
2024/01/31 11:14:48;;;;;;;25.90;17.70;;;;;;;7.81;73.71;101698.05;110714;243;153899;-67
2024/01/31 11:17:34;;;;;;;24.30;16.80;;;;;;;7.77;73.66;101692.52;110818;246;175218;-67
2024/01/31 11:20:11;;;;;;;21.10;15.20;;;;;;;7.74;73.76;101695.51;110757;243;155221;-69
2024/01/31 11:22:48;;;;;;;21.90;15.40;;;;;;;7.70;73.97;101690.13;110898;246;38669;-70
2024/01/31 11:25:29;;;;;;;19.90;14.00;;;;;;;7.70;74.05;101690.83;110799;243;154921;-69
2024/01/31 11:28:03;;;;;;;20.90;14.20;;;;;;;7.73;74.24;101691.69;110894;246;38337;-70
2024/01/31 11:30:37;;;;;;;22.20;15.00;;;;;;;7.77;74.31;101690.10;110837;243;153804;-69
2024/01/31 11:33:11;;;;;;;22.90;15.90;;;;;;;7.81;74.43;101686.60;110850;246;39500;-70
2024/01/31 11:35:45;;;;;;;21.70;15.60;;;;;;;7.85;74.45;101679.98;110959;246;38709;-68
2024/01/31 11:38:24;;;;;;;22.90;15.20;;;;;;;7.88;74.48;101679.09;110746;243;153877;-68
2024/01/31 11:41:01;;;;;;;20.90;15.50;;;;;;;7.89;74.48;101671.45;110941;246;38691;-69
2024/01/31 11:43:38;;;;;;;24.30;15.20;;;;;;;7.90;74.45;101672.83;110793;243;154620;-70
2024/01/31 11:46:12;;;;;;;20.40;15.50;;;;;;;7.94;74.53;101667.77;110913;246;38927;-68
2024/01/31 11:48:53;;;;;;;20.30;14.20;;;;;;;8.00;74.59;101668.95;110835;243;155472;-68
2024/01/31 11:51:30;;;;;;;21.00;15.10;;;;;;;8.08;74.41;101666.46;110868;246;39869;-71
2024/01/31 11:54:04;;;;;;;21.90;15.20;;;;;;;8.10;74.25;101666.10;110937;246;38394;-70
2024/01/31 11:56:37;;;;;;;23.00;15.70;;;;;;;8.16;74.35;101664.66;110750;243;153829;-68
2024/01/31 11:59:21;;;;;;;22.20;16.00;;;;;;;8.19;74.22;101661.85;110898;246;38843;-68
2024/01/31 12:01:58;;;;;;;24.80;15.60;;;;;;;8.21;74.19;101663.73;110750;243;154550;-70